createdAt,value
2023-04-14T00:01:30.367Z,98360.28
2023-04-14T00:03:57.741Z,98358.44
2023-04-14T00:06:24.964Z,98362.97
2023-04-14T00:08:52.315Z,98369.41
2023-04-14T00:11:19.383Z,98353.03
2023-04-14T00:13:46.681Z,98353.28
2023-04-14T00:16:14.033Z,98350.06
2023-04-14T00:18:41.473Z,98346.81
2023-04-14T00:21:08.812Z,98340.09
2023-04-14T00:23:36.166Z,98344.66
2023-04-14T00:26:05.279Z,98345.72
2023-04-14T00:28:32.611Z,98351.06
2023-04-14T00:30:59.747Z,98351.31
2023-04-14T00:33:27.041Z,98339.25
2023-04-14T00:35:54.237Z,98342.97
2023-04-14T00:38:22.064Z,98336.81
2023-04-14T00:40:49.178Z,98340.81
2023-04-14T00:43:20.408Z,98337.34
2023-04-14T00:45:50.483Z,98338.66
2023-04-14T00:48:20.020Z,98345.31
2023-04-14T00:50:48.143Z,98328.44
2023-04-14T00:53:15.827Z,98334.28
2023-04-14T00:55:43.489Z,98322.78
2023-04-14T00:58:11.368Z,98320.94
2023-04-14T01:00:38.632Z,98318.25
2023-04-14T01:03:07.066Z,98322.56
2023-04-14T01:05:34.507Z,98323.59
2023-04-14T01:08:04.847Z,98329.44
2023-04-14T01:10:46.888Z,98322.50
2023-04-14T01:13:33.540Z,98322.72
2023-04-14T01:16:24.902Z,98316.56
2023-04-14T01:19:17.968Z,98322.50
2023-04-14T01:21:57.082Z,98320.56
2023-04-14T01:24:53.872Z,98333.13
2023-04-14T01:27:39.404Z,98311.19
2023-04-14T01:30:22.492Z,98316.00
2023-04-14T01:32:56.536Z,98304.72
2023-04-14T01:35:41.195Z,98313.81
2023-04-14T01:38:22.050Z,98318.00
2023-04-14T01:40:56.245Z,98318.00
2023-04-14T01:43:28.815Z,98320.13
2023-04-14T01:46:07.366Z,98320.38
2023-04-14T01:48:35.980Z,98308.34
2023-04-14T01:51:06.114Z,98310.75
2023-04-14T01:53:37.127Z,98307.25
2023-04-14T01:56:09.297Z,98304.59
2023-04-14T01:58:38.764Z,98306.69
2023-04-14T02:01:07.947Z,98303.00
2023-04-14T02:03:38.183Z,98302.19
2023-04-14T02:06:07.572Z,98288.00
2023-04-14T02:08:37.883Z,98285.34
2023-04-14T02:11:07.358Z,98271.69
2023-04-14T02:13:35.985Z,98275.66
2023-04-14T02:16:09.623Z,98276.22
2023-04-14T02:18:40.474Z,98272.41
2023-04-14T02:21:09.876Z,98272.41
2023-04-14T02:23:38.219Z,98269.19
2023-04-14T02:26:15.532Z,98265.97
2023-04-14T02:28:51.287Z,98281.97
2023-04-14T02:31:25.250Z,98274.72
2023-04-14T02:33:55.828Z,98270.69
2023-04-14T02:36:34.136Z,98267.47
2023-04-14T02:39:15.310Z,98248.22
2023-04-14T02:41:47.138Z,98253.03
2023-04-14T02:44:28.300Z,98247.41
2023-04-14T02:47:04.224Z,98252.41
2023-04-14T02:49:44.141Z,98251.88
2023-04-14T02:52:17.473Z,98252.34
2023-04-14T02:54:49.628Z,98245.97
2023-04-14T02:57:18.832Z,98250.69
2023-04-14T02:59:49.540Z,98244.16
2023-04-14T03:02:20.376Z,98247.91
2023-04-14T03:04:56.311Z,98248.34
2023-04-14T03:07:37.412Z,98244.56
2023-04-14T03:10:06.466Z,98249.06
2023-04-14T03:12:35.980Z,98248.75
2023-04-14T03:15:07.179Z,98242.31
2023-04-14T03:17:38.040Z,98244.41
2023-04-14T03:20:07.717Z,98239.56
2023-04-14T03:22:40.695Z,98237.16
2023-04-14T03:25:12.433Z,98233.59
2023-04-14T03:27:45.715Z,98230.84
2023-04-14T03:30:14.519Z,98220.66
2023-04-14T03:32:46.844Z,98232.88
2023-04-14T03:35:16.570Z,98227.78
2023-04-14T03:37:48.971Z,98221.00
2023-04-14T03:40:17.735Z,98218.59
2023-04-14T03:42:49.732Z,98218.84
2023-04-14T03:45:21.411Z,98229.81
2023-04-14T03:47:50.049Z,98221.25
2023-04-14T03:50:23.109Z,98223.09
2023-04-14T03:52:53.432Z,98223.09
2023-04-14T03:55:22.416Z,98223.09
2023-04-14T03:57:51.251Z,98226.28
2023-04-14T04:00:20.373Z,98231.03
2023-04-14T04:02:50.500Z,98227.81
2023-04-14T04:05:18.617Z,98238.47
2023-04-14T04:07:46.843Z,98235.25
2023-04-14T04:10:16.249Z,98229.91
2023-04-14T04:12:47.273Z,98242.03
2023-04-14T04:15:15.642Z,98232.97
2023-04-14T04:17:47.477Z,98249.88
2023-04-14T04:20:18.818Z,98246.78
2023-04-14T04:22:52.008Z,98248.03
2023-04-14T04:25:21.471Z,98247.63
2023-04-14T04:28:07.895Z,98236.44
2023-04-14T04:30:40.920Z,98230.56
2023-04-14T04:33:10.740Z,98233.13
2023-04-14T04:35:39.453Z,98237.34
2023-04-14T04:38:11.377Z,98242.44
2023-04-14T04:40:41.464Z,98237.66
2023-04-14T04:43:19.196Z,98242.22
2023-04-14T04:45:59.185Z,98231.63
2023-04-14T04:48:28.633Z,98234.28
2023-04-14T04:50:56.339Z,98235.59
2023-04-14T04:53:23.675Z,98229.44
2023-04-14T04:55:50.865Z,98220.88
2023-04-14T04:58:18.224Z,98232.03
2023-04-14T05:00:45.382Z,98235.00
2023-04-14T05:03:12.846Z,98234.13
2023-04-14T05:05:40.148Z,98229.75
2023-04-14T05:08:08.246Z,98226.69
2023-04-14T05:10:38.283Z,98218.75
2023-04-14T05:13:05.745Z,98214.63
2023-04-14T05:15:32.779Z,98214.22
2023-04-14T05:18:03.286Z,98203.91
2023-04-14T05:20:30.540Z,98202.53
2023-04-14T05:22:57.813Z,98188.25
2023-04-14T05:25:25.062Z,98189.41
2023-04-14T05:27:52.359Z,98187.16
2023-04-14T05:30:19.579Z,98176.84
2023-04-14T05:32:46.997Z,98169.22
2023-04-14T05:35:14.268Z,98160.75
2023-04-14T05:37:41.617Z,98156.31
2023-04-14T05:40:09.563Z,98162.06
2023-04-14T05:42:37.084Z,98149.34
2023-04-14T05:45:04.970Z,98134.75
2023-04-14T05:47:32.970Z,98132.97
2023-04-14T05:50:00.184Z,98131.50
2023-04-14T05:52:28.419Z,98136.16
2023-04-14T05:54:55.713Z,98132.22
2023-04-14T05:57:22.996Z,98124.06
2023-04-14T05:59:50.294Z,98127.06
2023-04-14T06:02:17.744Z,98120.19
2023-04-14T06:04:45.166Z,98123.47
2023-04-14T06:07:12.570Z,98134.25
2023-04-14T06:09:39.738Z,98140.69
2023-04-14T06:12:07.023Z,98142.03
2023-04-14T06:14:34.382Z,98139.91
2023-04-14T06:17:04.049Z,98145.53
2023-04-14T06:19:31.156Z,98149.81
2023-04-14T06:21:58.411Z,98146.59
2023-04-14T06:24:25.489Z,98141.75
2023-04-14T06:26:52.749Z,98136.16
2023-04-14T06:29:19.900Z,98130.53
2023-04-14T06:31:47.357Z,98124.09
2023-04-14T06:34:14.512Z,98134.25
2023-04-14T06:36:41.824Z,98126.19
2023-04-14T06:39:13.528Z,98128.81
2023-04-14T06:41:40.919Z,98116.97
2023-04-14T06:44:08.097Z,98104.88
2023-04-14T06:46:37.098Z,98095.19
2023-04-14T06:49:04.131Z,98089.00
2023-04-14T06:51:33.418Z,98092.78
2023-04-14T06:54:01.168Z,98081.53
2023-04-14T06:56:29.549Z,98080.25
2023-04-14T06:58:56.609Z,98072.56
2023-04-14T07:01:24.353Z,98077.41
2023-04-14T07:03:51.551Z,98075.75
2023-04-14T07:06:19.031Z,98068.78
2023-04-14T07:08:46.629Z,98069.84
2023-04-14T07:11:14.072Z,98083.78
2023-04-14T07:13:41.856Z,98078.97
2023-04-14T07:16:09.386Z,98083.81
2023-04-14T07:18:36.535Z,98090.25
2023-04-14T07:21:04.140Z,98085.69
2023-04-14T07:23:32.880Z,98084.88
2023-04-14T07:26:00.897Z,98076.81
2023-04-14T07:28:28.608Z,98079.22
2023-04-14T07:30:56.674Z,98076.22
2023-04-14T07:33:24.309Z,98072.66
2023-04-14T07:36:01.377Z,98068.59
2023-04-14T07:38:29.831Z,98072.91
2023-04-14T07:40:57.516Z,98070.22
2023-04-14T07:43:24.662Z,98067.00
2023-04-14T07:45:53.086Z,98067.00
2023-04-14T07:48:21.418Z,98065.84
2023-04-14T07:50:51.894Z,98062.53
2023-04-14T07:53:19.091Z,98053.91
2023-04-14T07:55:46.738Z,98049.44
2023-04-14T07:58:15.779Z,98048.00
2023-04-14T08:00:43.810Z,98035.31
2023-04-14T08:03:11.276Z,98044.66
2023-04-14T08:05:38.927Z,98037.84
2023-04-14T08:08:06.296Z,98042.41
2023-04-14T08:10:34.435Z,98035.69
2023-04-14T08:13:03.649Z,98036.22
2023-04-14T08:15:32.193Z,98025.41
2023-04-14T08:17:59.362Z,98023.63
2023-04-14T08:20:26.873Z,98023.72
2023-04-14T08:22:56.476Z,98013.34
2023-04-14T08:25:24.267Z,98012.75
2023-04-14T08:27:51.736Z,98004.81
2023-04-14T08:30:19.108Z,98011.75
2023-04-14T08:32:46.308Z,98005.63
2023-04-14T08:35:39.767Z,98011.69
2023-04-14T08:38:06.197Z,98011.72
2023-04-14T08:40:42.848Z,98021.78
2023-04-14T08:43:13.736Z,98010.75
2023-04-14T08:45:43.450Z,98015.16
2023-04-14T08:48:14.822Z,98004.97
2023-04-14T08:50:59.459Z,98016.97
2023-04-14T08:53:28.991Z,98010.69
2023-04-14T08:55:59.517Z,98019.03
2023-04-14T08:58:26.865Z,98013.66
2023-04-14T09:00:54.777Z,98019.66
2023-04-14T09:03:22.624Z,98016.97
2023-04-14T09:05:51.906Z,98030.00
2023-04-14T09:08:20.604Z,98024.63
2023-04-14T09:10:48.587Z,98024.59
2023-04-14T09:13:17.313Z,98013.19
2023-04-14T09:15:44.707Z,98015.13
2023-04-14T09:18:13.130Z,98004.19
2023-04-14T09:20:41.979Z,97999.31
2023-04-14T09:23:10.447Z,97996.94
2023-04-14T09:25:40.594Z,97993.94
2023-04-14T09:28:08.641Z,97992.56
2023-04-14T09:30:36.259Z,97975.91
2023-04-14T09:33:07.153Z,97976.97
2023-04-14T09:35:47.487Z,97977.78
2023-04-14T09:38:16.659Z,97979.78
2023-04-14T09:40:44.896Z,97977.41
2023-04-14T09:43:26.685Z,97969.84
2023-04-14T09:45:55.932Z,97969.31
2023-04-14T09:48:23.147Z,97970.69
2023-04-14T09:51:02.268Z,97961.50
2023-04-14T09:53:33.130Z,97957.44
2023-04-14T09:56:03.434Z,97946.47
2023-04-14T09:58:36.537Z,97951.34
2023-04-14T10:01:10.658Z,97947.09
2023-04-14T10:03:51.734Z,97951.34
2023-04-14T10:06:22.654Z,97942.41
2023-04-14T10:08:55.987Z,97932.09
2023-04-14T10:11:35.989Z,97942.50
2023-04-14T10:14:06.579Z,97937.09
2023-04-14T10:16:34.526Z,97946.53
2023-04-14T10:19:03.837Z,97938.19
2023-04-14T10:21:31.749Z,97940.22
2023-04-14T10:24:03.286Z,97944.00
2023-04-14T10:26:31.179Z,97934.75
2023-04-14T10:28:59.303Z,97931.78
2023-04-14T10:31:34.523Z,97936.66
2023-04-14T10:34:13.622Z,97934.75
2023-04-14T10:36:42.627Z,97935.28
2023-04-14T10:39:11.984Z,97933.59
2023-04-14T10:41:48.335Z,97933.53
2023-04-14T10:44:32.545Z,97928.34
2023-04-14T10:47:04.724Z,97931.34
2023-04-14T10:49:41.148Z,97929.38
2023-04-14T10:52:17.275Z,97927.44
2023-04-14T10:54:54.731Z,97924.06
2023-04-14T10:57:26.815Z,97924.47
2023-04-14T10:59:59.429Z,97922.81
2023-04-14T11:02:34.456Z,97915.16
2023-04-14T11:05:11.505Z,97903.50
2023-04-14T11:07:55.825Z,97906.44
2023-04-14T11:10:23.946Z,97909.00
2023-04-14T11:13:07.145Z,97920.81
2023-04-14T11:16:02.848Z,97903.88
2023-04-14T11:18:30.312Z,97890.97
2023-04-14T11:21:16.521Z,97890.75
2023-04-14T11:23:44.637Z,97891.75
2023-04-14T11:26:16.006Z,97877.97
2023-04-14T11:28:46.141Z,97871.75
2023-04-14T11:31:16.746Z,97870.78
2023-04-14T11:33:44.920Z,97871.38
2023-04-14T11:36:13.342Z,97870.25
2023-04-14T11:38:42.729Z,97875.56
2023-04-14T11:41:10.434Z,97870.59
2023-04-14T11:43:38.983Z,97878.97
2023-04-14T11:46:08.174Z,97875.19
2023-04-14T11:48:57.968Z,97883.47
2023-04-14T11:51:30.514Z,97878.78
2023-04-14T11:54:00.683Z,97880.78
2023-04-14T11:56:31.035Z,97879.75
2023-04-14T11:59:06.249Z,97871.66
2023-04-14T12:01:33.726Z,97868.38
2023-04-14T12:04:01.551Z,97864.19
2023-04-14T12:06:29.034Z,97868.59
2023-04-14T12:09:03.563Z,97867.38
2023-04-14T12:11:30.841Z,97857.38
2023-04-14T12:13:58.610Z,97855.16
2023-04-14T12:16:27.038Z,97846.78
2023-04-14T12:18:56.141Z,97836.75
2023-04-14T12:21:23.590Z,97836.75
2023-04-14T12:23:50.933Z,97836.75
2023-04-14T12:26:21.006Z,97834.19
2023-04-14T12:28:57.461Z,97838.47
2023-04-14T12:31:32.033Z,97835.19
2023-04-14T12:34:03.891Z,97829.78
2023-04-14T12:36:47.930Z,97832.38
2023-04-14T12:39:17.878Z,97815.31
2023-04-14T12:41:45.606Z,97822.00
2023-04-14T12:44:20.949Z,97809.28
2023-04-14T12:46:50.792Z,97805.59
2023-04-14T12:49:38.651Z,97803.88
2023-04-14T12:52:08.012Z,97803.78
2023-04-14T12:54:54.133Z,97797.34
2023-04-14T12:57:22.216Z,97787.75
2023-04-14T12:59:50.553Z,97787.13
2023-04-14T13:02:18.480Z,97792.91
2023-04-14T13:04:46.166Z,97778.69
2023-04-14T13:07:13.259Z,97768.38
2023-04-14T13:09:42.497Z,97766.38
2023-04-14T13:12:09.948Z,97756.06
2023-04-14T13:14:37.331Z,97760.84
2023-04-14T13:17:07.000Z,97763.25
2023-04-14T13:19:34.515Z,97769.38
2023-04-14T13:22:01.746Z,97773.06
2023-04-14T13:24:29.695Z,97767.75
2023-04-14T13:26:56.963Z,97765.50
2023-04-14T13:29:24.370Z,97771.50
2023-04-14T13:31:51.488Z,97767.50
2023-04-14T13:34:18.977Z,97774.72
2023-04-14T13:36:46.762Z,97770.25
2023-04-14T13:39:14.219Z,97774.34
2023-04-14T13:41:41.293Z,97774.97
2023-04-14T13:44:08.994Z,97767.38
2023-04-14T13:46:40.909Z,97765.16
2023-04-14T13:49:08.934Z,97758.16
2023-04-14T13:51:35.952Z,97761.38
2023-04-14T13:54:03.529Z,97753.56
2023-04-14T13:56:30.910Z,97765.16
2023-04-14T13:58:58.390Z,97764.19
2023-04-14T14:01:25.747Z,97761.47
2023-04-14T14:03:53.339Z,97770.06
2023-04-14T14:06:20.645Z,97762.78
2023-04-14T14:09:06.425Z,97763.75
2023-04-14T14:11:35.307Z,97752.75
2023-04-14T14:14:05.061Z,97761.97
2023-04-14T14:16:37.127Z,97752.59
2023-04-14T14:19:08.294Z,97759.06
2023-04-14T14:21:35.798Z,97757.19
2023-04-14T14:24:06.211Z,97758.59
2023-04-14T14:26:33.589Z,97748.38
2023-04-14T14:29:02.356Z,97746.81
2023-04-14T14:31:29.554Z,97754.59
2023-04-14T14:33:57.062Z,97747.59
2023-04-14T14:36:24.167Z,97756.00
2023-04-14T14:38:51.770Z,97757.41
2023-04-14T14:41:18.903Z,97746.72
2023-04-14T14:43:46.204Z,97754.81
2023-04-14T14:46:13.315Z,97744.63
2023-04-14T14:48:40.699Z,97751.25
2023-04-14T14:51:07.900Z,97751.25
2023-04-14T14:53:35.312Z,97759.84
2023-04-14T14:56:04.550Z,97763.63
2023-04-14T14:58:31.825Z,97756.16
2023-04-14T15:00:58.956Z,97757.13
2023-04-14T15:03:26.443Z,97750.88
2023-04-14T15:05:53.700Z,97754.28
2023-04-14T15:08:21.475Z,97757.38
2023-04-14T15:10:50.835Z,97751.28
2023-04-14T15:13:18.580Z,97760.28
2023-04-14T15:15:45.685Z,97760.66
2023-04-14T15:18:13.213Z,97758.59
2023-04-14T15:20:42.163Z,97774.22
2023-04-14T15:23:09.517Z,97758.66
2023-04-14T15:25:37.663Z,97767.84
2023-04-14T15:28:05.618Z,97762.28
2023-04-14T15:30:32.754Z,97765.47
2023-04-14T15:33:01.011Z,97776.84
2023-04-14T15:35:28.319Z,97776.34
2023-04-14T15:37:55.686Z,97771.84
2023-04-14T15:40:23.122Z,97781.63
2023-04-14T15:42:50.583Z,97790.81
2023-04-14T15:45:18.283Z,97782.81
2023-04-14T15:47:46.293Z,97782.50
2023-04-14T15:50:18.595Z,97787.59
2023-04-14T15:52:46.387Z,97790.94
2023-04-14T15:55:13.435Z,97792.94
2023-04-14T15:57:40.811Z,97783.03
2023-04-14T16:00:08.855Z,97786.13
2023-04-14T16:02:45.805Z,97783.72
2023-04-14T16:05:13.232Z,97779.44
2023-04-14T16:07:40.670Z,97773.81
2023-04-14T16:10:08.466Z,97778.13
2023-04-14T16:12:36.667Z,97779.50
2023-04-14T16:15:09.499Z,97781.97
2023-04-14T16:17:37.002Z,97782.94
2023-04-14T16:20:04.512Z,97785.00
2023-04-14T16:22:32.433Z,97778.34
2023-04-14T16:24:59.742Z,97774.66
2023-04-14T16:27:27.622Z,97782.00
2023-04-14T16:29:54.699Z,97781.28
2023-04-14T16:32:22.463Z,97780.31
2023-04-14T16:34:49.567Z,97781.06
2023-04-14T16:37:17.312Z,97786.03
2023-04-14T16:39:44.960Z,97782.97
2023-04-14T16:42:12.377Z,97784.66
2023-04-14T16:44:39.508Z,97786.44
2023-04-14T16:47:07.102Z,97782.25
2023-04-14T16:49:34.122Z,97780.75
2023-04-14T16:52:02.305Z,97775.47
2023-04-14T16:54:29.343Z,97789.75
2023-04-14T16:56:57.077Z,97775.56
2023-04-14T16:59:24.112Z,97778.81
2023-04-14T17:01:51.620Z,97775.44
2023-04-14T17:04:18.891Z,97782.69
2023-04-14T17:06:46.927Z,97787.66
2023-04-14T17:09:13.993Z,97780.97
2023-04-14T17:11:42.611Z,97780.41
2023-04-14T17:14:10.290Z,97801.50
2023-04-14T17:16:38.176Z,97783.44
2023-04-14T17:19:05.467Z,97794.88
2023-04-14T17:21:32.777Z,97789.59
2023-04-14T17:24:00.096Z,97789.75
2023-04-14T17:26:28.472Z,97799.19
2023-04-14T17:28:55.731Z,97790.63
2023-04-14T17:31:23.183Z,97791.22
2023-04-14T17:33:51.085Z,97797.22
2023-04-14T17:36:18.519Z,97798.78
2023-04-14T17:38:45.869Z,97797.69
2023-04-14T17:41:13.886Z,97801.41
2023-04-14T17:43:41.724Z,97810.00
2023-04-14T17:46:10.308Z,97808.97
2023-04-14T17:48:37.378Z,97820.81
2023-04-14T17:51:05.157Z,97819.44
2023-04-14T17:53:32.668Z,97824.53
2023-04-14T17:56:00.540Z,97828.88
2023-04-14T17:58:27.755Z,97822.44
2023-04-14T18:00:55.550Z,97825.06
2023-04-14T18:03:23.642Z,97834.88
2023-04-14T18:05:51.459Z,97827.00
2023-04-14T18:08:18.516Z,97822.13
2023-04-14T18:10:46.071Z,97832.28
2023-04-14T18:13:13.203Z,97825.81
2023-04-14T18:15:41.934Z,97824.78
2023-04-14T18:18:09.126Z,97822.91
2023-04-14T18:20:37.385Z,97827.66
2023-04-14T18:23:05.215Z,97825.50
2023-04-14T18:28:04.253Z,97820.19
2023-04-14T18:30:31.888Z,97817.19
2023-04-14T18:33:00.722Z,97811.28
2023-04-14T18:35:29.110Z,97821.81
2023-04-14T18:37:56.251Z,97819.63
2023-04-14T18:40:24.090Z,97814.03
2023-04-14T18:42:54.202Z,97813.22
2023-04-14T18:45:21.782Z,97816.19
2023-04-14T18:47:48.853Z,97816.47
2023-04-14T18:50:16.407Z,97814.88
2023-04-14T18:52:43.700Z,97823.47
2023-04-14T18:55:11.131Z,97822.09
2023-04-14T18:57:38.238Z,97820.00
2023-04-14T19:00:06.586Z,97820.25
2023-04-14T19:02:34.491Z,97823.78
2023-04-14T19:05:04.712Z,97823.19
2023-04-14T19:07:31.954Z,97823.47
2023-04-14T19:10:00.593Z,97818.72
2023-04-14T19:12:28.906Z,97814.41
2023-04-14T19:14:56.776Z,97817.38
2023-04-14T19:17:24.105Z,97810.94
2023-04-14T19:19:51.471Z,97820.88
2023-04-14T19:22:18.550Z,97812.31
2023-04-14T19:24:45.839Z,97804.84
2023-04-14T19:27:13.194Z,97818.50
2023-04-14T19:29:41.081Z,97825.75
2023-04-14T19:32:08.295Z,97825.53
2023-04-14T19:34:35.953Z,97832.25
2023-04-14T19:37:06.157Z,97836.00
2023-04-14T19:39:34.288Z,97843.22
2023-04-14T19:42:03.601Z,97840.31
2023-04-14T19:44:31.227Z,97838.19
2023-04-14T19:46:58.289Z,97844.66
2023-04-14T19:49:26.197Z,97847.31
2023-04-14T19:51:54.350Z,97840.63
2023-04-14T19:54:21.724Z,97841.41
2023-04-14T19:56:48.780Z,97838.72
2023-04-14T19:59:16.337Z,97836.03
2023-04-14T20:01:44.765Z,97837.38
2023-04-14T20:04:13.003Z,97847.84
2023-04-14T20:06:41.356Z,97849.44
2023-04-14T20:09:09.410Z,97846.56
2023-04-14T20:11:37.083Z,97840.38
2023-04-14T20:14:06.271Z,97841.50
2023-04-14T20:16:33.332Z,97850.56
2023-04-14T20:19:01.623Z,97846.28
2023-04-14T20:21:29.415Z,97848.44
2023-04-14T20:23:56.770Z,97851.41
2023-04-14T20:26:23.807Z,97855.97
2023-04-14T20:28:51.173Z,97860.28
2023-04-14T20:31:18.663Z,97848.50
2023-04-14T20:33:46.109Z,97848.50
2023-04-14T20:36:14.154Z,97843.34
2023-04-14T20:38:41.584Z,97836.16
2023-04-14T20:41:08.970Z,97840.97
2023-04-14T20:43:36.429Z,97849.31
2023-04-14T20:46:04.158Z,97856.56
2023-04-14T20:48:32.227Z,97859.00
2023-04-14T20:51:00.516Z,97854.19
2023-04-14T20:53:30.041Z,97853.63
2023-04-14T20:55:57.229Z,97851.78
2023-04-14T20:58:24.797Z,97856.59
2023-04-14T21:00:51.900Z,97874.84
2023-04-14T21:03:19.403Z,97891.97
2023-04-14T21:05:47.560Z,97900.03
2023-04-14T21:08:15.457Z,97913.97
2023-04-14T21:11:02.169Z,97914.50
2023-04-14T21:15:30.014Z,97908.63
2023-04-14T21:16:17.252Z,97915.59
2023-04-14T21:18:44.778Z,97907.56
2023-04-14T21:21:12.277Z,97907.56
2023-04-14T21:23:39.827Z,97911.28
2023-04-14T21:26:07.191Z,97911.28
2023-04-14T21:28:35.487Z,97924.69
2023-04-14T21:31:03.475Z,97920.97
2023-04-14T21:33:32.252Z,97919.88
2023-04-14T21:36:00.320Z,97915.03
2023-04-14T21:38:28.390Z,97915.03
2023-04-14T21:40:55.759Z,97928.44
2023-04-14T21:43:23.096Z,97923.06
2023-04-14T21:45:50.615Z,97942.34
2023-04-14T21:48:19.399Z,97937.56
2023-04-14T21:50:47.229Z,97936.47
2023-04-14T21:53:15.079Z,97944.50
2023-04-14T21:55:42.608Z,97948.28
2023-04-14T21:58:09.929Z,97950.44
2023-04-14T22:00:37.196Z,97936.22
2023-04-14T22:03:04.785Z,97937.56
2023-04-14T22:05:32.285Z,97935.94
2023-04-14T22:07:59.751Z,97937.56
2023-04-14T22:10:34.720Z,97940.25
2023-04-14T22:13:02.963Z,97946.13
2023-04-14T22:15:30.599Z,97941.84
2023-04-14T22:17:58.558Z,97956.03
2023-04-14T22:20:26.370Z,97950.69
2023-04-14T22:22:53.709Z,97957.94
2023-04-14T22:25:20.876Z,97959.53
2023-04-14T22:27:48.375Z,97955.25
2023-04-14T22:30:15.848Z,97956.84
2023-04-14T22:32:43.432Z,97956.84
2023-04-14T22:35:10.689Z,97961.13
2023-04-14T22:37:38.060Z,97960.59
2023-04-14T22:40:06.109Z,97966.50
2023-04-14T22:42:33.416Z,97969.97
2023-04-14T22:45:02.262Z,97970.22
2023-04-14T22:47:29.947Z,97982.03
2023-04-14T22:49:56.977Z,97981.47
2023-04-14T22:52:25.706Z,97983.03
2023-04-14T22:54:52.771Z,97974.22
2023-04-14T22:57:20.377Z,97973.41
2023-04-14T22:59:47.473Z,97978.75
2023-04-14T23:02:15.049Z,97975.00
2023-04-14T23:04:42.300Z,97968.59
2023-04-14T23:07:09.790Z,97972.31
2023-04-14T23:09:36.877Z,97984.13
2023-04-14T23:12:04.507Z,97998.56
2023-04-14T23:14:32.335Z,97990.50
2023-04-14T23:17:00.222Z,97994.47
2023-04-14T23:19:28.195Z,97993.13
2023-04-14T23:21:55.490Z,97992.59
2023-04-14T23:24:23.489Z,97989.38
2023-04-14T23:26:51.006Z,98000.06
2023-04-14T23:29:18.149Z,97997.13
2023-04-14T23:31:45.647Z,97992.59
2023-04-14T23:34:12.708Z,97991.00
2023-04-14T23:36:40.118Z,97987.75
2023-04-14T23:39:07.248Z,97980.81
2023-04-14T23:41:34.627Z,97979.72
2023-04-14T23:44:01.721Z,97977.59
2023-04-14T23:46:30.053Z,97980.50
2023-04-14T23:48:59.070Z,97992.53
2023-04-14T23:51:31.901Z,98004.84
2023-04-14T23:54:02.182Z,98008.59
2023-04-14T23:56:31.563Z,98010.72
2023-04-14T23:58:59.546Z,98014.47
